Аэропорт: Габала. Габала

ICAO: UBBQ

METAR:
2019-07-23 18:00:00
UBBQ 231800Z 13004KT 9999 SCT050 BKN200 26/20 Q1009 R34/CLRD// NOSIG RMK MT PT OBSC
METAR:
Информация по данной станции не доступна